Time;durP1;ratioP1;P1;durP2;ratioP2;P2;SDS_P1;SDS_P2;PMS_P1;PMS_P2;Temp;Humidity;BMP_temperature;BMP_pressure;BME280_temperature;BME280_humidity;BME280_pressure;Samples;Min_cycle;Max_cycle;Signal;HPM_P1;HPM_P2
2021/09/12 00:00:18;;;;;;;82.45;39.90;;;;;;;10.62;88.83;99457.22;1653500;85;21486;-64
2021/09/12 00:02:46;;;;;;;78.35;40.98;;;;;;;10.61;88.84;99454.23;1653385;84;21012;-65
2021/09/12 00:05:14;;;;;;;93.03;42.90;;;;;;;10.58;88.98;99455.11;1653696;85;20996;-64
2021/09/12 00:07:41;;;;;;;82.05;41.83;;;;;;;10.57;89.13;99454.87;1656617;84;21105;-64
2021/09/12 00:10:09;;;;;;;77.45;42.60;;;;;;;10.57;89.07;99454.06;1646699;86;21169;-64
2021/09/12 00:12:38;;;;;;;80.55;39.48;;;;;;;10.57;88.92;99463.10;1655134;85;21145;-64
2021/09/12 00:15:08;;;;;;;78.12;39.67;;;;;;;10.57;88.81;99456.80;1655712;85;21630;-64
2021/09/12 00:17:34;;;;;;;78.05;39.80;;;;;;;10.55;88.90;99454.38;1653638;85;21553;-63
2021/09/12 00:20:01;;;;;;;82.05;40.60;;;;;;;10.53;88.85;99449.77;1651814;85;21177;-63
2021/09/12 00:22:28;;;;;;;93.92;40.78;;;;;;;10.50;88.98;99451.77;1653173;86;21223;-63
2021/09/12 00:24:54;;;;;;;82.20;39.18;;;;;;;10.49;89.04;99455.64;1651725;86;20975;-63
2021/09/12 00:27:21;;;;;;;71.67;38.92;;;;;;;10.47;89.00;99460.64;1651627;86;22299;-64
2021/09/12 00:29:49;;;;;;;72.80;40.33;;;;;;;10.46;89.08;99456.28;1644145;85;21067;-63
2021/09/12 00:32:16;;;;;;;84.85;40.20;;;;;;;10.45;89.12;99455.22;1647896;85;21093;-63
2021/09/12 00:34:43;;;;;;;76.65;40.45;;;;;;;10.44;89.04;99459.90;1645206;86;21874;-63
2021/09/12 00:37:10;;;;;;;70.12;39.50;;;;;;;10.41;89.11;99457.79;1647677;85;21420;-63
2021/09/12 00:39:36;;;;;;;71.02;40.60;;;;;;;10.40;89.20;99454.80;1654685;85;21003;-64
2021/09/12 00:42:03;;;;;;;70.15;39.73;;;;;;;10.38;89.38;99461.20;1654489;86;21487;-63
2021/09/12 00:44:31;;;;;;;73.25;38.88;;;;;;;10.37;89.29;99458.20;1637851;86;21085;-63
2021/09/12 00:46:57;;;;;;;73.30;39.48;;;;;;;10.34;89.25;99462.14;1654114;85;21079;-64
2021/09/12 00:49:23;;;;;;;77.10;40.40;;;;;;;10.30;89.61;99461.97;1652618;85;21105;-63
2021/09/12 00:51:53;;;;;;;83.42;40.25;;;;;;;10.27;89.80;99459.85;1653255;86;21049;-63
2021/09/12 00:54:20;;;;;;;74.32;40.15;;;;;;;10.27;89.83;99461.78;1658699;85;21475;-64
2021/09/12 00:56:47;;;;;;;78.87;39.23;;;;;;;10.27;89.84;99457.11;1653029;86;20992;-63
2021/09/12 00:59:15;;;;;;;69.12;38.50;;;;;;;10.25;89.63;99457.42;1674038;83;21058;-64
2021/09/12 01:01:42;;;;;;;67.97;37.95;;;;;;;10.23;89.80;99456.92;1650952;86;21126;-64
2021/09/12 01:04:09;;;;;;;62.65;36.03;;;;;;;10.22;89.93;99455.31;1651104;86;21007;-64
2021/09/12 01:06:38;;;;;;;124.35;38.65;;;;;;;10.20;90.07;99457.56;1645699;85;21005;-65
2021/09/12 01:09:05;;;;;;;120.30;37.78;;;;;;;10.18;90.09;99458.41;1621952;87;21529;-65
2021/09/12 01:11:32;;;;;;;113.20;37.48;;;;;;;10.17;90.18;99458.72;1623622;87;22971;-64
2021/09/12 01:14:01;;;;;;;110.00;35.70;;;;;;;10.16;90.13;99459.84;1656790;85;21069;-64
2021/09/12 01:16:27;;;;;;;94.45;35.20;;;;;;;10.15;90.06;99459.59;1655108;85;21545;-63
2021/09/12 01:18:55;;;;;;;93.25;34.65;;;;;;;10.11;90.04;99458.05;1647709;86;21027;-64
2021/09/12 01:21:24;;;;;;;88.52;35.50;;;;;;;10.09;90.31;99456.17;1650453;85;20983;-65
2021/09/12 01:23:53;;;;;;;70.50;33.42;;;;;;;10.09;90.50;99462.23;1655173;85;21574;-65
2021/09/12 01:26:23;;;;;;;71.02;33.15;;;;;;;10.08;90.69;99466.91;1635302;86;21098;-65
2021/09/12 01:28:50;;;;;;;76.45;33.42;;;;;;;10.07;90.59;99465.84;1634257;85;21550;-65
2021/09/12 01:31:23;;;;;;;75.75;34.13;;;;;;;10.06;90.55;99465.59;1652426;86;21885;-65
2021/09/12 01:33:50;;;;;;;65.52;33.18;;;;;;;10.06;90.40;99461.48;1655512;85;21072;-65
2021/09/12 01:36:18;;;;;;;67.32;31.20;;;;;;;10.04;90.37;99459.61;1653464;85;20944;-65
2021/09/12 01:38:46;;;;;;;61.10;33.02;;;;;;;10.04;90.28;99458.24;1649249;86;20911;-66
2021/09/12 01:41:12;;;;;;;55.98;29.95;;;;;;;10.02;90.35;99459.92;1654261;85;21075;-63
2021/09/12 01:43:50;;;;;;;66.80;31.85;;;;;;;10.02;90.69;99459.12;1653560;85;21091;-64
2021/09/12 01:46:18;;;;;;;56.23;29.85;;;;;;;10.02;90.85;99457.75;1644652;86;21094;-64
2021/09/12 01:48:50;;;;;;;55.67;29.05;;;;;;;10.01;90.83;99457.50;1651944;85;21463;-63
2021/09/12 01:51:18;;;;;;;51.58;29.05;;;;;;;9.99;90.70;99450.15;1650102;85;22201;-64
2021/09/12 01:53:51;;;;;;;51.45;28.38;;;;;;;9.98;90.54;99449.90;1650703;85;21023;-63
2021/09/12 01:56:20;;;;;;;51.02;27.73;;;;;;;9.94;90.52;99449.16;1657409;85;21030;-63
2021/09/12 01:58:49;;;;;;;54.23;28.73;;;;;;;9.94;90.44;99451.89;1652954;86;21078;-62
2021/09/12 02:01:16;;;;;;;51.77;26.25;;;;;;;9.91;90.28;99451.16;1652165;86;21177;-63
2021/09/12 02:03:52;;;;;;;55.17;27.80;;;;;;;9.88;90.78;99450.97;1650573;85;21426;-62
2021/09/12 02:06:26;;;;;;;54.48;26.30;;;;;;;9.86;91.25;99444.42;1652506;85;21004;-62
2021/09/12 02:08:55;;;;;;;;;;;;;;;9.84;91.18;99443.93;1658108;85;21047;-62
2021/09/12 02:11:22;;;;;;;49.48;26.50;;;;;;;9.82;91.00;99450.29;1646763;85;20509;-63
2021/09/12 02:13:54;;;;;;;59.77;27.62;;;;;;;9.79;91.13;99445.45;1653845;85;21553;-63
2021/09/12 02:16:27;;;;;;;53.95;26.87;;;;;;;9.77;91.18;99444.96;1648703;85;21009;-65
2021/09/12 02:18:56;;;;;;;52.05;26.35;;;;;;;9.75;91.04;99440.91;1649632;85;21566;-65
2021/09/12 02:21:26;;;;;;;45.43;25.35;;;;;;;9.72;91.06;99448.39;1654105;83;21004;-65
2021/09/12 02:23:52;;;;;;;53.05;27.80;;;;;;;9.70;91.44;99450.08;1653997;85;21078;-65
2021/09/12 02:26:29;;;;;;;52.23;27.40;;;;;;;9.69;91.59;99444.34;1682701;84;21180;-65
2021/09/12 02:28:57;;;;;;;45.88;25.65;;;;;;;9.68;91.48;99447.39;1650241;85;21018;-65
2021/09/12 02:31:26;;;;;;;45.90;25.75;;;;;;;9.68;91.47;99446.02;1649956;85;21092;-64
2021/09/12 02:33:55;;;;;;;49.13;26.45;;;;;;;9.66;91.44;99442.22;1643220;84;21075;-64
2021/09/12 02:36:24;;;;;;;46.80;24.18;;;;;;;9.65;91.43;99448.83;1649577;84;21055;-65
2021/09/12 02:38:53;;;;;;;45.08;25.02;;;;;;;9.64;91.51;99448.58;1654305;85;21173;-65
2021/09/12 02:41:24;;;;;;;46.77;25.52;;;;;;;9.64;91.55;99449.14;1646687;84;21546;-65
2021/09/12 02:43:55;;;;;;;49.30;26.35;;;;;;;9.63;91.49;99449.70;1631182;86;21020;-64
2021/09/12 02:46:27;;;;;;;46.35;25.90;;;;;;;9.62;91.54;99445.34;1656192;86;21538;-64
2021/09/12 02:48:59;;;;;;;45.03;23.98;;;;;;;9.59;91.70;99444.03;1650370;85;21006;-66
2021/09/12 02:51:27;;;;;;;44.35;23.92;;;;;;;9.59;91.86;99437.17;1612932;87;21117;-65
2021/09/12 02:53:59;;;;;;;39.70;23.47;;;;;;;9.56;91.92;99435.63;1601764;88;20906;-65
2021/09/12 02:56:31;;;;;;;44.13;24.55;;;;;;;9.55;92.05;99440.30;1600095;88;20962;-65
2021/09/12 02:59:03;;;;;;;45.78;25.10;;;;;;;9.54;92.15;99440.05;1578708;89;20968;-65
2021/09/12 03:01:33;;;;;;;43.13;24.00;;;;;;;9.51;92.22;99437.11;1599860;89;20978;-65
2021/09/12 03:04:03;;;;;;;41.53;22.95;;;;;;;9.51;92.30;99435.19;1602018;88;20989;-65
2021/09/12 03:06:37;;;;;;;47.25;23.12;;;;;;;9.52;92.32;99430.52;1600969;87;21548;-63
2021/09/12 03:09:08;;;;;;;40.12;21.93;;;;;;;9.51;92.24;99434.38;1615232;87;21522;-63
2021/09/12 03:11:39;;;;;;;41.50;23.02;;;;;;;9.49;92.20;99436.05;1594284;88;21052;-63
2021/09/12 03:14:13;;;;;;;39.95;21.87;;;;;;;9.49;92.25;99435.25;1654782;85;20942;-64
2021/09/12 03:16:44;;;;;;;42.93;22.10;;;;;;;9.47;92.23;99432.81;1650564;85;20957;-64
2021/09/12 03:19:16;;;;;;;43.65;22.52;;;;;;;9.47;92.19;99429.27;1649119;85;20973;-64
2021/09/12 03:21:45;;;;;;;40.10;21.25;;;;;;;9.46;92.10;99429.83;1650834;85;21516;-64
2021/09/12 03:24:16;;;;;;;40.88;20.80;;;;;;;9.46;92.14;99429.02;1650062;85;21602;-63
2021/09/12 03:26:52;;;;;;;33.85;21.35;;;;;;;9.46;92.16;99427.64;1652568;85;20901;-63
2021/09/12 03:29:22;;;;;;;33.15;21.07;;;;;;;9.44;92.36;99429.33;1653805;85;21139;-65
2021/09/12 03:31:53;;;;;;;32.95;19.48;;;;;;;9.43;92.46;99433.75;1652240;85;21142;-65
2021/09/12 03:34:24;;;;;;;36.42;18.32;;;;;;;9.45;92.60;99438.36;1650418;85;21123;-66
2021/09/12 03:36:53;;;;;;;31.25;18.95;;;;;;;9.44;92.70;99433.44;1654219;85;21054;-65
2021/09/12 03:39:26;;;;;;;33.15;20.00;;;;;;;9.44;92.76;99434.00;1649282;85;21165;-65
2021/09/12 03:41:57;;;;;;;;;;;;;;;9.44;92.87;99432.62;1649100;86;21845;-66
2021/09/12 03:44:24;;;;;;;35.70;19.77;;;;;;;9.44;92.99;99440.28;1651769;85;20108;-65
2021/09/12 03:47:00;;;;;;;34.60;20.50;;;;;;;9.43;93.03;99440.03;1653428;85;21518;-66
2021/09/12 03:49:41;;;;;;;41.68;21.60;;;;;;;9.44;93.25;99439.48;1636531;85;21081;-65
2021/09/12 03:52:07;;;;;;;33.92;20.52;;;;;;;9.46;93.50;99442.72;1649890;85;21022;-66
2021/09/12 03:54:35;;;;;;;40.85;19.27;;;;;;;9.49;93.71;99435.25;1654662;86;21140;-66
2021/09/12 03:57:05;;;;;;;37.03;20.32;;;;;;;9.52;93.80;99441.47;1649652;85;21036;-66
2021/09/12 03:59:39;;;;;;;37.53;21.07;;;;;;;9.55;93.92;99436.74;1627526;86;21599;-66
2021/09/12 04:02:11;;;;;;;30.85;19.40;;;;;;;9.59;94.00;99435.00;1655083;85;21011;-64
2021/09/12 04:04:42;;;;;;;42.05;20.62;;;;;;;9.63;94.10;99441.48;1649785;86;21063;-64
2021/09/12 04:07:15;;;;;;;39.60;19.77;;;;;;;9.68;94.29;99442.72;1649890;85;25314;-63
2021/09/12 04:09:43;;;;;;;47.90;21.77;;;;;;;9.72;94.30;99434.69;1675807;83;21047;-63
2021/09/12 04:12:13;;;;;;;46.75;20.48;;;;;;;9.78;94.55;99428.77;1649703;84;21040;-63
2021/09/12 04:14:45;;;;;;;41.18;20.37;;;;;;;9.86;94.93;99438.94;1644357;85;21328;-65
2021/09/12 04:17:14;;;;;;;54.88;22.30;;;;;;;9.96;95.15;99437.87;1652907;86;21003;-65
2021/09/12 04:19:48;;;;;;;55.05;26.45;;;;;;;10.06;95.60;99436.23;1651876;85;21215;-65
2021/09/12 04:22:19;;;;;;;53.85;27.15;;;;;;;10.15;96.00;99434.34;1634277;86;20974;-64
2021/09/12 04:24:49;;;;;;;89.58;32.25;;;;;;;10.27;96.38;99438.47;1647892;85;21458;-63
2021/09/12 04:27:18;;;;;;;70.28;34.10;;;;;;;10.37;96.70;99429.39;1652012;85;21046;-64
2021/09/12 04:29:51;;;;;;;66.77;33.13;;;;;;;10.49;97.39;99431.50;1643992;85;20998;-64
2021/09/12 04:32:17;;;;;;;60.83;31.62;;;;;;;10.63;97.75;99435.51;1654087;86;21175;-64
2021/09/12 04:34:47;;;;;;;52.20;29.90;;;;;;;10.74;98.01;99426.66;1652192;86;20916;-64
2021/09/12 04:37:22;;;;;;;48.20;27.98;;;;;;;10.85;98.38;99426.60;1642033;85;21042;-64
2021/09/12 04:39:51;;;;;;;48.33;28.27;;;;;;;10.98;98.93;99432.25;1649850;86;21066;-66
2021/09/12 04:42:18;;;;;;;54.73;27.95;;;;;;;11.13;99.18;99425.73;1648012;86;21621;-65
2021/09/12 04:44:54;;;;;;;47.33;26.45;;;;;;;11.24;99.00;99427.03;1650001;86;20931;-65
2021/09/12 04:47:24;;;;;;;42.43;25.23;;;;;;;11.34;99.01;99428.64;1653090;85;20987;-64
2021/09/12 04:49:53;;;;;;;50.40;24.57;;;;;;;11.44;99.04;99420.64;1646003;85;21450;-66
2021/09/12 04:52:23;;;;;;;49.23;25.57;;;;;;;11.53;99.05;99420.08;1653792;86;21050;-65
2021/09/12 04:54:56;;;;;;;43.98;24.07;;;;;;;11.65;99.19;99424.31;1625101;86;21011;-65
2021/09/12 04:57:28;;;;;;;44.53;23.73;;;;;;;11.77;98.92;99424.49;1652566;85;20946;-65
2021/09/12 05:00:05;;;;;;;35.68;22.77;;;;;;;11.85;98.60;99422.30;1638523;86;21452;-66
2021/09/12 05:02:42;;;;;;;40.38;23.92;;;;;;;11.93;98.46;99427.54;1629159;87;20916;-65
2021/09/12 05:05:21;;;;;;;43.38;23.85;;;;;;;12.03;98.43;99422.25;1638305;85;21036;-65
2021/09/12 05:07:49;;;;;;;48.65;21.93;;;;;;;12.12;98.42;99418.34;1682092;83;21008;-65
2021/09/12 05:10:19;;;;;;;45.60;25.10;;;;;;;12.25;98.40;99423.36;1650827;85;21139;-65
2021/09/12 05:12:47;;;;;;;39.60;24.02;;;;;;;12.34;98.19;99419.20;1656204;85;20960;-65
2021/09/12 05:15:22;;;;;;;49.20;24.18;;;;;;;12.45;98.31;99415.75;1645697;85;20977;-65
2021/09/12 05:17:53;;;;;;;42.88;23.22;;;;;;;12.60;98.60;99413.58;1657842;85;20965;-64
2021/09/12 05:20:24;;;;;;;41.40;23.95;;;;;;;12.74;98.67;99414.13;1659814;86;21116;-65
2021/09/12 05:22:56;;;;;;;40.67;24.37;;;;;;;12.88;98.71;99409.98;1681244;83;20991;-65
2021/09/12 05:25:24;;;;;;;45.98;23.57;;;;;;;13.01;98.10;99413.63;1655438;85;21540;-65
2021/09/12 05:27:59;;;;;;;44.10;25.30;;;;;;;13.15;98.32;99411.98;1656828;85;20960;-65
2021/09/12 05:30:28;;;;;;;46.68;25.02;;;;;;;13.30;98.44;99410.58;1650955;85;21476;-65
2021/09/12 05:32:57;;;;;;;41.08;22.52;;;;;;;13.43;98.12;99410.30;1656950;83;21048;-65
2021/09/12 05:35:27;;;;;;;41.65;24.32;;;;;;;13.56;98.00;99411.16;1637329;84;21423;-65
2021/09/12 05:37:55;;;;;;;41.58;24.27;;;;;;;13.68;97.83;99416.73;1654332;85;20909;-65
2021/09/12 05:40:29;;;;;;;38.40;22.40;;;;;;;13.78;96.63;99412.74;1677974;84;21097;-65
2021/09/12 05:43:00;;;;;;;44.27;24.50;;;;;;;13.88;96.10;99408.95;1624475;87;21473;-65
2021/09/12 05:45:30;;;;;;;39.92;23.57;;;;;;;13.96;96.42;99408.63;1623707;87;20955;-65
2021/09/12 05:47:58;;;;;;;44.08;24.77;;;;;;;14.06;95.90;99409.58;1648364;86;21460;-65
2021/09/12 05:50:29;;;;;;;37.65;22.50;;;;;;;14.15;95.45;99415.00;1658410;85;21472;-65
2021/09/12 05:52:59;;;;;;;38.98;22.77;;;;;;;14.24;94.26;99415.70;1654948;85;21458;-64
2021/09/12 05:55:35;;;;;;;37.75;23.47;;;;;;;14.32;93.62;99413.41;1650406;85;21611;-64
2021/09/12 05:58:09;;;;;;;39.58;24.15;;;;;;;14.42;93.81;99409.42;1650994;86;21009;-64
2021/09/12 06:00:44;;;;;;;37.50;22.75;;;;;;;14.54;93.52;99403.88;1648754;85;20913;-63
2021/09/12 06:03:11;;;;;;;34.92;22.80;;;;;;;14.63;92.31;99412.86;1619856;87;21769;-65
2021/09/12 06:05:37;;;;;;;43.65;23.10;;;;;;;14.71;91.17;99409.17;1624503;86;20968;-67
2021/09/12 06:08:11;;;;;;;36.73;21.70;;;;;;;14.78;90.95;99410.78;1657092;85;20958;-65
2021/09/12 06:10:40;;;;;;;;;;;;;;;14.90;91.45;99409.16;1657451;85;20943;-64
2021/09/12 06:13:05;;;;;;;43.63;21.93;;;;;;;14.99;90.79;99408.45;1639146;86;21310;-64
2021/09/12 06:15:37;;;;;;;37.17;22.20;;;;;;;15.08;91.15;99407.14;1658089;85;21110;-67
2021/09/12 06:18:05;;;;;;;37.08;21.48;;;;;;;15.18;90.45;99402.50;1657316;85;21555;-67
2021/09/12 06:20:36;;;;;;;38.85;21.95;;;;;;;15.31;89.81;99412.16;1643977;85;21004;-65
2021/09/12 06:23:09;;;;;;;30.43;20.52;;;;;;;15.42;89.15;99415.46;1656948;85;21007;-65
2021/09/12 06:25:39;;;;;;;32.85;21.42;;;;;;;15.55;89.27;99414.03;1656686;85;21189;-66
2021/09/12 06:28:11;;;;;;;32.73;21.85;;;;;;;15.63;89.14;99420.80;1630783;86;21166;-65
2021/09/12 06:30:42;;;;;;;34.80;21.95;;;;;;;15.72;89.00;99424.23;1657678;85;21131;-65
2021/09/12 06:33:12;;;;;;;41.08;21.62;;;;;;;15.82;88.43;99417.38;1656278;85;21032;-65
2021/09/12 06:35:42;;;;;;;35.83;22.00;;;;;;;15.91;87.42;99418.03;1644851;85;21561;-65
2021/09/12 06:38:15;;;;;;;37.80;21.97;;;;;;;16.02;86.65;99414.97;1622590;87;20965;-64
2021/09/12 06:40:43;;;;;;;41.58;22.02;;;;;;;16.15;86.51;99423.43;1627492;87;20897;-64
2021/09/12 06:43:13;;;;;;;39.45;21.15;;;;;;;16.26;84.95;99418.72;1614149;88;20934;-64
2021/09/12 06:45:46;;;;;;;40.28;21.75;;;;;;;16.37;83.74;99423.38;1585774;88;21056;-64
2021/09/12 06:48:21;;;;;;;34.18;21.82;;;;;;;16.49;83.61;99420.52;1636114;86;21473;-65
2021/09/12 06:50:57;;;;;;;38.95;19.92;;;;;;;16.61;83.03;99418.81;1636852;85;21169;-64
2021/09/12 06:53:24;;;;;;;34.25;21.33;;;;;;;16.73;82.47;99418.16;1651582;84;21097;-64
2021/09/12 06:55:54;;;;;;;42.45;24.85;;;;;;;16.87;81.06;99420.44;1653294;84;21484;-65
2021/09/12 06:58:27;;;;;;;33.98;23.02;;;;;;;16.99;80.98;99416.75;1657782;84;20986;-65
2021/09/12 07:00:58;;;;;;;41.10;22.82;;;;;;;17.13;80.58;99412.33;1657459;85;20957;-65
2021/09/12 07:03:28;;;;;;;33.08;20.80;;;;;;;17.32;80.56;99420.45;1655220;84;21133;-65
2021/09/12 07:06:03;;;;;;;38.60;20.68;;;;;;;17.56;79.92;99416.57;1653793;85;20987;-65
2021/09/12 07:08:34;;;;;;;66.45;20.15;;;;;;;17.79;79.06;99415.50;1652587;85;21389;-68
2021/09/12 07:11:12;;;;;;;43.78;20.25;;;;;;;18.05;76.81;99422.30;1666902;85;21521;-69
2021/09/12 07:13:43;;;;;;;34.25;19.12;;;;;;;18.24;76.83;99424.23;1653543;86;20983;-69
2021/09/12 07:16:13;;;;;;;35.33;19.07;;;;;;;18.46;74.83;99424.24;1651254;86;21164;-66
2021/09/12 07:18:46;;;;;;;48.20;17.85;;;;;;;18.71;75.07;99427.44;1651411;85;21094;-67
2021/09/12 07:21:16;;;;;;;29.87;17.15;;;;;;;19.08;74.61;99422.61;1656168;85;21034;-69
2021/09/12 07:23:48;;;;;;;33.60;17.23;;;;;;;19.49;71.91;99428.34;1657128;85;21696;-68
2021/09/12 07:26:17;;;;;;;37.45;16.82;;;;;;;19.85;69.71;99424.81;1650599;84;21026;-66
2021/09/12 07:28:47;;;;;;;25.57;15.25;;;;;;;20.21;68.98;99426.00;1654220;86;21211;-66
2021/09/12 07:31:18;;;;;;;32.48;15.78;;;;;;;20.67;68.11;99425.62;1651651;85;21098;-68
2021/09/12 07:33:59;;;;;;;24.30;15.53;;;;;;;21.08;65.82;99418.73;1607477;85;20979;-80
2021/09/12 07:36:51;;;;;;;26.42;15.28;;;;;;;21.41;63.94;99414.93;1636976;86;20969;-68
2021/09/12 07:42:41;;;;;;;30.05;15.98;;;;;;;22.16;61.61;99419.98;1654185;85;21052;-66
2021/09/12 07:45:05;;;;;;;22.77;14.78;;;;;;;22.53;59.51;99422.44;1646309;85;21017;-65
2021/09/12 07:47:44;;;;;;;25.27;15.45;;;;;;;22.80;58.40;99415.24;1657132;85;21097;-66
2021/09/12 07:50:13;;;;;;;22.48;14.13;;;;;;;23.06;56.60;99421.02;1654770;85;21848;-64
2021/09/12 07:52:45;;;;;;;24.30;13.38;;;;;;;23.29;56.42;99421.33;1640405;85;21091;-65
2021/09/12 07:55:14;;;;;;;17.25;12.18;;;;;;;23.60;56.16;99417.47;1654001;85;21591;-65
2021/09/12 07:57:49;;;;;;;24.85;12.50;;;;;;;23.93;53.82;99420.29;1651252;86;21583;-68
2021/09/12 08:00:22;;;;;;;19.25;11.88;;;;;;;24.26;53.43;99419.70;1655267;85;21048;-68
2021/09/12 08:02:57;;;;;;;20.45;11.93;;;;;;;24.59;51.87;99418.25;1651901;85;21677;-66
2021/09/12 08:05:26;;;;;;;19.37;11.20;;;;;;;24.92;50.67;99419.55;1656512;84;21089;-66
2021/09/12 08:07:59;;;;;;;18.05;10.98;;;;;;;25.18;49.54;99418.12;1655846;85;21815;-66
2021/09/12 08:10:32;;;;;;;22.98;10.82;;;;;;;25.48;49.70;99415.95;1651429;85;20997;-66
2021/09/12 08:13:05;;;;;;;20.43;10.32;;;;;;;25.82;47.20;99415.97;1656473;85;21062;-65
2021/09/12 08:15:36;;;;;;;17.40;11.28;;;;;;;26.01;45.24;99411.67;1655645;86;20884;-65
2021/09/12 08:18:05;;;;;;;18.10;11.15;;;;;;;26.01;46.16;99408.86;1650363;85;20968;-67
2021/09/12 08:20:42;;;;;;;14.85;10.05;;;;;;;26.08;45.11;99407.35;1693259;84;21503;-66
2021/09/12 08:23:12;;;;;;;19.98;10.35;;;;;;;26.25;45.10;99399.27;1656503;85;21470;-63
2021/09/12 08:25:43;;;;;;;13.08;9.15;;;;;;;26.49;43.22;99402.94;1655233;85;21463;-64
2021/09/12 08:28:18;;;;;;;;;;;;;;;26.62;43.88;99401.70;1653471;86;20964;-65
2021/09/12 08:30:48;;;;;;;15.83;9.08;;;;;;;26.79;42.75;99408.26;1636782;86;20088;-66
2021/09/12 08:33:19;;;;;;;13.43;9.00;;;;;;;26.96;42.58;99406.57;1658779;85;21379;-64
2021/09/12 08:35:53;;;;;;;15.25;9.23;;;;;;;27.06;41.83;99402.58;1637325;86;20960;-64
2021/09/12 08:38:27;;;;;;;15.38;9.30;;;;;;;27.11;42.49;99402.09;1655245;85;21048;-66
2021/09/12 08:40:59;;;;;;;17.57;9.58;;;;;;;27.22;43.18;99401.23;1663059;84;21029;-65
2021/09/12 08:43:30;;;;;;;14.68;9.35;;;;;;;27.33;42.89;99396.20;1665767;85;21024;-66
2021/09/12 08:46:00;;;;;;;17.65;10.53;;;;;;;27.48;42.08;99398.91;1659034;85;21165;-63
2021/09/12 08:48:31;;;;;;;18.40;9.60;;;;;;;27.61;40.09;99400.50;1656839;85;21796;-63
2021/09/12 08:51:03;;;;;;;14.63;9.40;;;;;;;27.53;40.49;99406.86;1644207;86;20964;-68
2021/09/12 08:53:30;;;;;;;13.90;8.65;;;;;;;27.66;39.84;99409.06;1655055;85;21063;-69
2021/09/12 08:56:00;;;;;;;15.63;8.78;;;;;;;27.83;39.22;99403.02;1655931;86;20962;-67
2021/09/12 08:58:32;;;;;;;10.68;7.83;;;;;;;27.95;39.10;99398.73;1655444;85;21171;-73
2021/09/12 09:01:04;;;;;;;12.30;8.43;;;;;;;28.03;37.66;99399.37;1649454;86;20864;-67
2021/09/12 09:03:35;;;;;;;11.40;8.38;;;;;;;28.01;39.07;99404.04;1656375;85;21073;-74
2021/09/12 09:06:17;;;;;;;15.70;8.43;;;;;;;28.15;37.48;99395.88;1631937;86;21109;-67
2021/09/12 09:08:56;;;;;;;;;;;;;;;28.35;36.50;99396.60;1652249;86;21002;-69
2021/09/12 09:11:39;;;;;;;16.30;8.30;;;;;;;28.47;37.00;99393.70;1647440;85;20127;-68
2021/09/12 09:14:20;;;;;;;14.47;7.97;;;;;;;28.54;37.68;99397.15;1629121;85;21526;-69
2021/09/12 09:16:55;;;;;;;11.03;7.33;;;;;;;28.71;36.46;99395.73;1627758;85;21015;-70
2021/09/12 09:19:24;;;;;;;9.08;7.05;;;;;;;28.88;35.63;99393.87;1653030;85;20965;-70
2021/09/12 09:21:53;;;;;;;12.95;8.10;;;;;;;28.82;34.07;99391.43;1651840;85;21007;-70
2021/09/12 09:24:29;;;;;;;15.28;7.53;;;;;;;28.78;36.74;99391.31;1654711;85;21799;-69
2021/09/12 09:27:04;;;;;;;14.45;7.95;;;;;;;28.87;35.50;99392.92;1656083;85;21027;-70
2021/09/12 09:29:39;;;;;;;13.93;7.62;;;;;;;28.91;34.79;99388.74;1656867;85;21496;-71
2021/09/12 09:32:17;;;;;;;10.25;7.22;;;;;;;28.92;35.82;99392.36;1655558;85;21013;-69
2021/09/12 09:34:46;;;;;;;14.47;7.30;;;;;;;29.03;34.91;99387.22;1650187;86;21041;-69
2021/09/12 09:37:21;;;;;;;9.63;7.40;;;;;;;29.22;34.91;99382.05;1652904;85;21021;-70
2021/09/12 09:39:52;;;;;;;12.85;7.80;;;;;;;29.22;33.60;99379.84;1645871;84;21764;-69
2021/09/12 09:42:37;;;;;;;11.63;7.17;;;;;;;29.07;33.82;99382.89;1652218;85;21084;-68
2021/09/12 09:45:12;;;;;;;12.90;7.30;;;;;;;29.11;34.75;99382.97;1656762;85;21468;-69
2021/09/12 09:47:49;;;;;;;15.18;7.70;;;;;;;29.32;34.80;99378.75;1634936;85;21501;-70
2021/09/12 09:50:29;;;;;;;13.48;8.10;;;;;;;29.62;32.83;99382.36;1656232;85;21046;-69
2021/09/12 09:52:58;;;;;;;18.52;7.87;;;;;;;29.93;32.64;99384.84;1637611;84;21040;-70
2021/09/12 09:55:28;;;;;;;14.23;8.28;;;;;;;30.06;32.70;99381.41;1651546;85;21693;-70
2021/09/12 09:58:05;;;;;;;11.45;8.05;;;;;;;30.08;31.77;99378.13;1636443;86;20961;-69
2021/09/12 10:00:36;;;;;;;13.83;7.35;;;;;;;29.86;32.53;99383.03;1650506;85;21119;-70
2021/09/12 10:03:06;;;;;;;11.60;7.92;;;;;;;29.56;34.20;99381.49;1659783;84;21073;-69
2021/09/12 10:05:41;;;;;;;8.80;6.45;;;;;;;29.22;33.07;99382.67;1659468;84;20994;-68
2021/09/12 10:08:20;;;;;;;10.35;7.15;;;;;;;29.01;32.52;99383.25;1687501;85;21172;-68
2021/09/12 10:10:50;;;;;;;11.90;6.78;;;;;;;28.95;34.42;99382.20;1626813;86;21083;-70
2021/09/12 10:13:19;;;;;;;10.75;6.65;;;;;;;29.04;34.54;99376.71;1658147;85;21150;-70
2021/09/12 10:15:50;;;;;;;10.75;7.00;;;;;;;29.22;33.76;99378.44;1631073;86;21118;-68
2021/09/12 10:18:28;;;;;;;10.40;7.30;;;;;;;29.38;33.70;99373.34;1649172;86;20916;-69
2021/09/12 10:20:57;;;;;;;14.23;6.87;;;;;;;29.52;33.27;99375.77;1606187;86;21081;-66
2021/09/12 10:23:32;;;;;;;10.82;7.33;;;;;;;29.68;32.54;99383.39;1613012;85;21180;-67
2021/09/12 10:26:03;;;;;;;17.85;7.58;;;;;;;29.79;31.92;99376.17;1654416;85;21551;-67
2021/09/12 10:28:35;;;;;;;11.63;7.15;;;;;;;29.93;31.92;99382.64;1651276;85;21171;-66
2021/09/12 10:31:31;;;;;;;10.58;7.03;;;;;;;29.98;32.59;99371.55;1651586;85;21582;-66
2021/09/12 10:34:11;;;;;;;11.00;7.15;;;;;;;30.05;31.31;99370.54;1651238;85;21130;-69
2021/09/12 10:36:42;;;;;;;15.08;7.00;;;;;;;30.19;32.00;99359.56;1646890;85;21090;-69
2021/09/12 10:39:40;;;;;;;9.08;6.95;;;;;;;30.33;31.24;99358.94;1644383;86;21034;-71
2021/09/12 10:42:16;;;;;;;11.65;7.20;;;;;;;30.50;30.29;99350.47;1646713;86;21036;-70
2021/09/12 10:44:52;;;;;;;11.68;6.42;;;;;;;30.48;31.08;99355.80;1644105;86;21080;-68
2021/09/12 10:47:27;;;;;;;10.08;6.33;;;;;;;30.51;29.47;99351.44;1644722;86;21570;-65
2021/09/12 10:49:58;;;;;;;12.53;7.28;;;;;;;30.57;29.84;99346.61;1653550;85;21079;-68
2021/09/12 10:52:49;;;;;;;12.58;7.20;;;;;;;30.58;30.18;99349.64;1632979;86;20928;-66
2021/09/12 10:55:16;;;;;;;10.75;7.15;;;;;;;30.51;30.39;99350.64;1658452;85;21093;-69
2021/09/12 10:57:47;;;;;;;11.03;6.78;;;;;;;30.47;30.96;99349.34;1659431;85;21511;-70
2021/09/12 11:00:17;;;;;;;11.65;6.80;;;;;;;30.60;30.70;99352.81;1647780;85;20952;-69
2021/09/12 11:02:51;;;;;;;10.23;6.75;;;;;;;30.81;29.55;99347.17;1652649;84;20968;-70
2021/09/12 11:05:33;;;;;;;8.18;7.08;;;;;;;30.90;29.73;99342.22;1678222;84;20967;-68
2021/09/12 11:08:02;;;;;;;13.25;7.05;;;;;;;30.91;28.66;99345.21;1679783;84;20919;-68
2021/09/12 11:10:42;;;;;;;8.10;6.78;;;;;;;30.77;29.67;99338.00;1651811;84;20972;-69
2021/09/12 11:13:13;;;;;;;8.38;6.25;;;;;;;30.94;28.21;99347.76;1645454;85;21136;-68
2021/09/12 11:15:45;;;;;;;10.38;7.40;;;;;;;30.89;28.23;99343.47;1653421;85;21091;-67
2021/09/12 11:18:16;;;;;;;7.50;6.53;;;;;;;30.84;27.88;99349.09;1653327;83;21121;-68
2021/09/12 11:20:46;;;;;;;8.45;6.62;;;;;;;30.81;27.72;99343.55;1650029;85;21679;-67
2021/09/12 11:23:37;;;;;;;9.80;6.85;;;;;;;30.71;28.25;99337.00;1683998;84;21101;-67
2021/09/12 11:26:05;;;;;;;10.70;7.15;;;;;;;30.70;28.00;99339.66;1658860;86;21038;-68
2021/09/12 11:28:35;;;;;;;9.70;7.00;;;;;;;30.77;28.42;99331.55;1656103;84;21454;-67
2021/09/12 11:31:10;;;;;;;11.00;7.17;;;;;;;30.87;28.94;99336.84;1635621;85;20953;-68
2021/09/12 11:33:55;;;;;;;10.45;7.08;;;;;;;30.79;28.20;99335.50;1622980;87;21486;-68
2021/09/12 11:36:19;;;;;;;11.00;7.20;;;;;;;30.66;28.85;99334.75;1647753;86;21103;-70
2021/09/12 11:38:59;;;;;;;18.15;7.12;;;;;;;30.69;29.64;99333.83;1657001;85;21567;-71
2021/09/12 11:41:29;;;;;;;11.48;7.08;;;;;;;30.92;29.18;99324.13;1652553;84;21062;-70
2021/09/12 11:44:01;;;;;;;9.00;6.47;;;;;;;31.15;28.76;99324.34;1651608;86;21046;-66